Città:
 IT 
 EN 
 FR 
 DE 
 ES 

Dati meteo attuali Milano

Datameteo.com - Informazione e servizi avanzati per la meteorologia,la nautica e la protezione civile
Milano / Linate, Italy
Alba: 7:56 AM UTC1
Tramonto: 5:09 PM UTC1
 Lat: 45.42N, Lon: 9.27E
ICAO Used: LIML
Condizioni Meteo Attuali Aggiornate: 20.01.2020 alle 11:20 UTC
Quasi Sereno
Quasi Sereno
Sereno
Quasi Sereno
Temp: 9°C
Umidita': 34%
Direz/Vel. Vento: ENE 5 / KT raffiche
Pressione: 1042 hPa
Punto di rugiada: -6°C
Temperatura percepita: 7°C
Visibilitą: >10 KM (ottima)
Temperatura percepita in
presenza di vento (Wind Chill)
:
7°C
T. max (ultime 24 ore): 8°C
T. min (ultime 24 ore): N/D


METAR ORIGINALE
LIML 201120Z 07005KT 030V100 CAVOK 09/M06 Q1042 NOSIG



[ Indietro ]


Elaborazione dati by Datameteo.com - Lrc srl Copyright ©, All rights reserved.
Visualizza la versione web
©2010 Datameteo.com
weather mobile,mobile weather,meteo mobile,mobile meteo,meteo sul telefonino datameteo.com